Time;durP1;ratioP1;P1;durP2;ratioP2;P2;SDS_P1;SDS_P2;PMS_P1;PMS_P2;Temp;Humidity;BMP_temperature;BMP_pressure;BME280_temperature;BME280_humidity;BME280_pressure;Samples;Min_cycle;Max_cycle;Signal;HPM_P1;HPM_P2
2022/03/15 00:01:59;;;;;;;60.47;22.35;;;;;;;3.76;100.00;101269.00;5052613;28;20521;-88
2022/03/15 00:04:27;;;;;;;56.17;21.30;;;;;;;3.76;100.00;101269.00;5053999;28;20102;-88
2022/03/15 00:06:56;;;;;;;54.63;20.83;;;;;;;3.69;100.00;101267.41;5055039;28;20404;-89
2022/03/15 00:09:28;;;;;;;54.15;20.75;;;;;;;3.68;100.00;101271.75;5046911;28;20047;-89
2022/03/15 00:11:54;;;;;;;51.50;21.15;;;;;;;3.61;100.00;101263.25;5055406;28;20071;-89
2022/03/15 00:14:20;;;;;;;62.88;23.23;;;;;;;3.65;100.00;101266.63;5057145;28;20041;-88
2022/03/15 00:16:46;;;;;;;75.13;20.27;;;;;;;3.66;100.00;101267.50;5046228;28;20357;-88
2022/03/15 00:19:15;;;;;;;55.30;20.38;;;;;;;3.60;100.00;101256.38;5052550;28;20021;-88
2022/03/15 00:21:42;;;;;;;43.42;18.85;;;;;;;3.57;100.00;101259.03;5034793;28;20045;-89
2022/03/15 00:24:07;;;;;;;44.75;19.92;;;;;;;3.55;100.00;101254.75;5023469;28;20038;-88
2022/03/15 00:26:35;;;;;;;51.83;20.95;;;;;;;3.54;100.00;101258.25;5032721;28;20511;-89
2022/03/15 00:29:04;;;;;;;50.47;21.25;;;;;;;3.53;100.00;101249.63;5032705;28;20033;-89
2022/03/15 00:31:29;;;;;;;;;;;;;;;3.52;100.00;101253.09;5033247;28;20120;-89
2022/03/15 00:33:54;;;;;;;46.47;20.20;;;;;;;3.53;100.00;101261.72;5033844;28;20320;-88
2022/03/15 00:36:20;;;;;;;48.63;20.65;;;;;;;3.53;100.00;101254.81;5032963;28;20044;-88
2022/03/15 00:38:45;;;;;;;49.58;21.33;;;;;;;3.51;100.00;101253.13;5039066;28;20103;-88
2022/03/15 00:41:11;;;;;;;60.03;21.92;;;;;;;3.47;100.00;101259.25;5045114;28;20124;-87
2022/03/15 00:43:37;;;;;;;49.97;21.73;;;;;;;3.47;100.00;101260.13;5050760;28;20041;-86
2022/03/15 00:46:05;;;;;;;58.80;25.75;;;;;;;3.43;100.00;101255.88;5052828;28;20033;-88
2022/03/15 00:48:30;;;;;;;73.35;24.20;;;;;;;3.39;100.00;101259.44;5050156;28;20048;-88
2022/03/15 00:50:55;;;;;;;69.18;27.63;;;;;;;3.37;100.00;101264.66;5049838;28;20390;-87
2022/03/15 00:53:21;;;;;;;67.53;26.35;;;;;;;3.34;100.00;101267.31;5048662;28;20037;-87
2022/03/15 00:55:47;;;;;;;72.03;27.10;;;;;;;3.30;100.00;101272.56;5049309;28;20097;-87
2022/03/15 00:58:14;;;;;;;69.15;26.67;;;;;;;3.28;100.00;101271.78;5043219;28;20373;-86
2022/03/15 01:00:44;;;;;;;76.30;27.80;;;;;;;3.26;100.00;101271.78;5059726;28;20064;-89
2022/03/15 01:03:11;;;;;;;71.85;27.27;;;;;;;3.24;100.00;101275.31;5055371;28;20477;-88
2022/03/15 01:05:36;;;;;;;70.75;28.48;;;;;;;3.24;100.00;101276.16;5057638;28;20056;-87
2022/03/15 01:08:04;;;;;;;61.22;24.92;;;;;;;3.21;100.00;101276.22;5060056;28;20037;-87
2022/03/15 01:10:29;;;;;;;62.17;24.52;;;;;;;3.22;100.00;101277.91;5056794;28;20396;-87
2022/03/15 01:12:54;;;;;;;57.70;23.75;;;;;;;3.20;100.00;101278.84;5059026;28;20032;-87
2022/03/15 01:15:25;;;;;;;57.60;24.42;;;;;;;3.16;100.00;101280.66;5060460;28;20047;-88
2022/03/15 01:17:51;;;;;;;48.22;21.02;;;;;;;3.12;100.00;101291.97;5060383;28;20037;-86
2022/03/15 01:20:17;;;;;;;57.30;22.45;;;;;;;3.09;100.00;101285.09;5060139;28;20436;-88
2022/03/15 01:22:42;;;;;;;63.67;23.20;;;;;;;3.07;100.00;101291.19;5059640;28;20048;-87
2022/03/15 01:25:10;;;;;;;54.22;24.35;;;;;;;3.08;100.00;101286.00;5050033;28;20039;-88
2022/03/15 01:27:36;;;;;;;62.33;24.92;;;;;;;3.11;100.00;101287.66;5074942;28;20029;-87
2022/03/15 01:30:02;;;;;;;65.82;26.85;;;;;;;3.20;100.00;101287.47;5071459;28;20045;-87
2022/03/15 01:32:28;;;;;;;69.28;27.73;;;;;;;3.21;100.00;101291.78;5076484;28;20040;-88
2022/03/15 01:34:55;;;;;;;56.03;23.00;;;;;;;3.15;100.00;101286.69;5076275;28;20028;-87
2022/03/15 01:37:23;;;;;;;58.28;23.35;;;;;;;3.11;100.00;101291.09;5076758;28;20025;-84
2022/03/15 01:39:49;;;;;;;54.08;22.52;;;;;;;3.09;100.00;101287.69;5071576;28;20106;-88
2022/03/15 01:42:14;;;;;;;54.05;21.00;;;;;;;3.06;100.00;101285.16;5054962;28;20033;-88
2022/03/15 01:44:46;;;;;;;55.28;22.60;;;;;;;3.09;100.00;101292.03;5055695;28;20124;-87
2022/03/15 01:47:11;;;;;;;52.28;22.30;;;;;;;3.11;100.00;101292.84;5055251;28;20041;-88
2022/03/15 01:49:37;;;;;;;52.45;22.08;;;;;;;3.10;100.00;101289.41;5055953;28;20040;-89
2022/03/15 01:52:03;;;;;;;57.10;21.10;;;;;;;3.08;100.00;101290.31;5056317;28;20035;-88
2022/03/15 01:54:29;;;;;;;52.80;20.08;;;;;;;3.07;100.00;101294.63;5061155;28;20033;-86
2022/03/15 01:56:55;;;;;;;52.00;20.98;;;;;;;3.06;100.00;101299.84;5059031;28;20132;-88
2022/03/15 01:59:24;;;;;;;50.53;21.63;;;;;;;3.04;100.00;101299.00;5062466;28;20033;-88
2022/03/15 02:01:49;;;;;;;58.08;21.00;;;;;;;3.08;100.00;101301.53;5065832;28;20045;-87
2022/03/15 02:04:15;;;;;;;60.08;22.48;;;;;;;3.08;100.00;101296.34;5051505;28;20029;-89
2022/03/15 02:06:50;;;;;;;48.80;20.83;;;;;;;3.08;100.00;101301.53;5058254;28;20108;-88
2022/03/15 02:09:16;;;;;;;58.42;22.17;;;;;;;3.07;100.00;101297.22;5037400;28;20049;-88
2022/03/15 02:11:51;;;;;;;50.75;20.70;;;;;;;3.03;100.00;101295.56;5041293;28;20041;-91
2022/03/15 02:14:25;;;;;;;50.42;20.27;;;;;;;3.02;100.00;101293.88;5051163;28;20038;-89
2022/03/15 02:16:54;;;;;;;48.03;19.65;;;;;;;3.01;100.00;101294.78;5064497;28;20037;-88
2022/03/15 02:19:31;;;;;;;;;;;;;;;;;;;;;
2022/03/15 02:21:59;;;;;;;49.47;19.67;;;;;;;2.99;100.00;101291.34;5084457;28;20068;-87
2022/03/15 02:24:25;;;;;;;50.67;19.65;;;;;;;2.97;100.00;101281.91;5072083;28;20074;-88
2022/03/15 02:26:51;;;;;;;57.35;21.33;;;;;;;2.96;100.00;101286.22;5073238;28;20065;-87
2022/03/15 02:29:18;;;;;;;56.65;23.13;;;;;;;2.99;100.00;101290.50;5072477;28;20029;-87
2022/03/15 02:31:44;;;;;;;63.83;23.20;;;;;;;2.99;100.00;101272.34;5064234;28;20043;-87
2022/03/15 02:34:10;;;;;;;49.50;21.67;;;;;;;2.99;100.00;101267.19;5068961;28;20025;-87
2022/03/15 02:36:36;;;;;;;51.30;19.35;;;;;;;2.98;100.00;101260.31;5066029;28;20464;-89
2022/03/15 02:39:02;;;;;;;58.90;21.73;;;;;;;2.99;100.00;101254.22;5065327;28;20049;-89
2022/03/15 02:41:29;;;;;;;60.15;22.75;;;;;;;2.96;100.00;101249.09;5056646;28;20171;-88
2022/03/15 02:43:57;;;;;;;53.15;22.30;;;;;;;2.95;100.00;101258.59;5055899;28;20029;-87
2022/03/15 02:46:34;;;;;;;52.90;22.13;;;;;;;2.96;100.00;101257.72;5055131;28;20106;-87
2022/03/15 02:49:03;;;;;;;48.78;20.77;;;;;;;2.98;100.00;101265.47;5055671;28;20032;-87
2022/03/15 02:51:33;;;;;;;43.10;19.02;;;;;;;2.98;100.00;101266.31;5056939;28;20535;-88
2022/03/15 02:54:02;;;;;;;54.47;21.75;;;;;;;2.95;100.00;101268.97;5054250;28;20346;-89
2022/03/15 02:56:29;;;;;;;53.15;19.75;;;;;;;2.90;100.00;101268.22;5054866;28;20041;-89
2022/03/15 02:58:55;;;;;;;50.88;20.48;;;;;;;2.92;100.00;101271.63;5055472;28;20497;-88
2022/03/15 03:01:26;;;;;;;51.28;19.88;;;;;;;2.93;100.00;101281.13;5057620;28;20048;-87
2022/03/15 03:03:53;;;;;;;53.13;18.15;;;;;;;2.94;100.00;101275.03;5061189;28;20352;-88
2022/03/15 03:06:18;;;;;;;51.50;20.45;;;;;;;2.87;100.00;101276.91;5060544;28;20048;-89
2022/03/15 03:08:46;;;;;;;46.22;18.48;;;;;;;2.85;100.00;101280.38;5058205;28;20495;-88
2022/03/15 03:11:24;;;;;;;;;;;;;;;;;;;;;
2022/03/15 03:13:52;;;;;;;52.90;18.75;;;;;;;2.81;100.00;101289.94;5041877;28;20093;-87
2022/03/15 03:16:19;;;;;;;38.75;16.98;;;;;;;2.77;100.00;101295.22;5040644;28;20026;-87
2022/03/15 03:18:45;;;;;;;43.00;18.13;;;;;;;2.71;100.00;101293.63;5040576;28;20079;-88
2022/03/15 03:21:12;;;;;;;45.85;18.38;;;;;;;2.72;100.00;101289.28;5036842;28;20033;-87
2022/03/15 03:23:38;;;;;;;47.38;18.10;;;;;;;2.72;100.00;101297.06;5043634;28;20029;-88
2022/03/15 03:26:04;;;;;;;49.25;19.08;;;;;;;2.67;100.00;101289.38;5061685;28;20103;-87
2022/03/15 03:28:33;;;;;;;54.15;21.48;;;;;;;2.67;100.00;101294.56;5056407;28;20025;-88
2022/03/15 03:31:00;;;;;;;51.08;19.27;;;;;;;2.68;100.00;101296.25;5053633;28;20444;-88
2022/03/15 03:33:26;;;;;;;52.45;19.05;;;;;;;2.70;100.00;101297.06;5051550;28;20043;-88
2022/03/15 03:35:53;;;;;;;45.13;20.23;;;;;;;2.72;100.00;101294.47;5047442;28;20182;-88
2022/03/15 03:38:18;;;;;;;55.05;20.25;;;;;;;2.73;100.00;101289.25;5035985;28;20037;-88
2022/03/15 03:40:44;;;;;;;44.15;18.73;;;;;;;2.71;100.00;101287.56;5052052;28;20396;-89
2022/03/15 03:43:12;;;;;;;40.88;18.30;;;;;;;2.71;100.00;101290.16;5034831;28;20106;-88
2022/03/15 03:45:38;;;;;;;53.08;18.73;;;;;;;2.66;100.00;101287.66;5036585;28;20053;-88
2022/03/15 03:48:05;;;;;;;48.17;18.58;;;;;;;2.67;100.00;101284.19;5036623;28;20040;-89
2022/03/15 03:50:30;;;;;;;42.65;19.58;;;;;;;2.69;100.00;101285.00;5048051;28;20041;-86
2022/03/15 03:52:56;;;;;;;44.00;18.23;;;;;;;2.73;100.00;101290.97;5053259;28;20126;-88
2022/03/15 03:55:22;;;;;;;50.72;17.45;;;;;;;2.68;100.00;101288.50;5053813;28;20044;-88
2022/03/15 03:57:48;;;;;;;40.92;16.80;;;;;;;2.64;100.00;101285.09;5061503;28;20017;-88
2022/03/15 04:00:14;;;;;;;51.00;19.98;;;;;;;2.60;100.00;101283.44;5068599;28;20045;-87
2022/03/15 04:02:42;;;;;;;53.78;18.83;;;;;;;2.60;100.00;101283.44;5065156;28;20041;-87
2022/03/15 04:05:09;;;;;;;57.15;19.92;;;;;;;2.58;100.00;101285.19;5058560;28;20409;-88
2022/03/15 04:07:35;;;;;;;44.80;17.73;;;;;;;2.56;100.00;101284.38;5068608;28;20039;-87
2022/03/15 04:10:08;;;;;;;44.13;18.40;;;;;;;2.55;100.00;101280.06;5083266;28;20012;-87
2022/03/15 04:12:34;;;;;;;49.10;18.98;;;;;;;2.58;100.00;101279.16;5088990;28;20043;-88
2022/03/15 04:15:12;;;;;;;42.25;17.60;;;;;;;2.56;100.00;101275.75;5080735;28;20037;-87
2022/03/15 04:17:37;;;;;;;43.13;17.98;;;;;;;2.55;100.00;101272.31;5075414;28;20036;-88
2022/03/15 04:20:03;;;;;;;48.20;18.20;;;;;;;2.55;100.00;101269.72;5081889;28;20089;-88
2022/03/15 04:22:29;;;;;;;41.05;17.52;;;;;;;2.54;100.00;101264.56;5076320;28;20035;-88
2022/03/15 04:24:55;;;;;;;43.05;18.63;;;;;;;2.52;100.00;101262.03;5081636;28;20111;-88
2022/03/15 04:27:23;;;;;;;61.42;23.55;;;;;;;2.55;100.00;101253.34;5083604;28;20040;-88
2022/03/15 04:29:50;;;;;;;63.22;21.42;;;;;;;2.57;100.00;101249.84;5076139;28;20112;-86
2022/03/15 04:32:26;;;;;;;56.67;20.77;;;;;;;2.56;100.00;101255.91;5073628;28;20029;-87
2022/03/15 04:34:51;;;;;;;46.03;18.67;;;;;;;2.56;100.00;101258.50;5074590;28;20032;-87
2022/03/15 04:37:20;;;;;;;49.58;18.20;;;;;;;2.56;100.00;101258.50;5059953;28;20021;-86
2022/03/15 04:39:45;;;;;;;56.42;28.15;;;;;;;2.56;100.00;101255.03;5057211;28;20102;-86
2022/03/15 04:42:11;;;;;;;45.65;18.85;;;;;;;2.56;100.00;101260.22;5051687;28;20033;-87
2022/03/15 04:44:37;;;;;;;49.33;19.17;;;;;;;2.55;100.00;101264.53;5053773;28;20469;-88
2022/03/15 04:47:03;;;;;;;49.55;18.77;;;;;;;2.56;100.00;101260.22;5058997;28;20067;-87
2022/03/15 04:49:28;;;;;;;38.80;15.90;;;;;;;2.53;100.00;101253.38;5058074;28;20025;-87
2022/03/15 04:51:54;;;;;;;54.55;19.67;;;;;;;2.55;100.00;101253.34;5057176;28;20072;-87
2022/03/15 04:54:22;;;;;;;46.28;16.83;;;;;;;2.56;100.00;101252.44;5064517;28;20048;-87
2022/03/15 04:56:48;;;;;;;59.20;20.08;;;;;;;2.54;100.00;101244.72;5049514;28;20064;-86
2022/03/15 04:59:13;;;;;;;61.58;19.90;;;;;;;2.52;100.00;101238.72;5050197;28;20105;-86
2022/03/15 05:01:39;;;;;;;59.72;19.00;;;;;;;2.52;100.00;101238.72;5051405;28;20702;-86
2022/03/15 05:04:04;;;;;;;55.22;17.88;;;;;;;2.50;100.00;101255.16;5047146;28;20132;-87
2022/03/15 05:06:33;;;;;;;58.72;20.70;;;;;;;2.50;100.00;101250.84;5032715;28;20044;-88
2022/03/15 05:08:58;;;;;;;44.38;17.52;;;;;;;2.50;100.00;101249.97;5047945;28;20435;-87
2022/03/15 05:11:27;;;;;;;50.03;18.10;;;;;;;2.50;100.00;101256.00;5051013;28;20044;-86
2022/03/15 05:13:55;;;;;;;41.87;16.50;;;;;;;2.48;100.00;101255.16;5051949;28;20029;-86
2022/03/15 05:16:21;;;;;;;37.53;17.00;;;;;;;2.48;100.00;101249.16;5051197;28;20060;-86
2022/03/15 05:18:54;;;;;;;35.45;15.60;;;;;;;2.49;100.00;101250.88;5037371;28;20051;-88
2022/03/15 05:21:25;;;;;;;45.83;18.70;;;;;;;2.52;100.00;101254.25;5048441;28;20385;-87
2022/03/15 05:23:55;;;;;;;45.25;17.63;;;;;;;2.53;100.00;101252.53;5051074;28;20493;-88
2022/03/15 05:26:22;;;;;;;54.10;21.90;;;;;;;2.56;100.00;101247.25;5033710;28;20056;-87
2022/03/15 05:28:49;;;;;;;42.35;17.52;;;;;;;2.56;100.00;101250.72;5040798;28;20414;-86
2022/03/15 05:31:15;;;;;;;39.38;15.80;;;;;;;2.58;100.00;101253.28;5050336;28;20035;-88
2022/03/15 05:33:41;;;;;;;39.05;16.35;;;;;;;2.60;100.00;101262.75;5054353;28;20013;-87
2022/03/15 05:36:07;;;;;;;45.97;17.38;;;;;;;2.59;100.00;101255.81;5057172;28;20025;-88
2022/03/15 05:38:32;;;;;;;44.25;18.98;;;;;;;2.64;100.00;101260.94;5055375;28;20059;-86
2022/03/15 05:40:58;;;;;;;40.50;16.23;;;;;;;2.62;100.00;101254.94;5051322;28;20041;-86
2022/03/15 05:43:25;;;;;;;39.72;20.23;;;;;;;2.74;100.00;101253.84;5043831;28;20051;-86
2022/03/15 05:45:50;;;;;;;43.45;16.75;;;;;;;3.32;100.00;101253.53;5050517;28;20021;-85
2022/03/15 05:48:17;;;;;;;49.50;16.50;;;;;;;3.60;100.00;101252.94;5053201;28;20054;-83
2022/03/15 05:50:42;;;;;;;41.58;16.23;;;;;;;3.73;100.00;101249.16;5057668;28;20461;-86
2022/03/15 05:53:08;;;;;;;35.95;16.30;;;;;;;3.69;99.38;101241.50;5045086;28;20101;-85
2022/03/15 05:55:35;;;;;;;35.53;13.88;;;;;;;3.60;99.16;101243.41;5058692;28;20025;-87
2022/03/15 05:58:03;;;;;;;44.17;13.90;;;;;;;3.81;99.92;101248.97;5052243;28;20036;-87
2022/03/15 06:00:29;;;;;;;30.50;14.52;;;;;;;3.77;98.02;101242.16;5036048;28;20037;-86
2022/03/15 06:02:55;;;;;;;29.58;13.63;;;;;;;3.64;97.84;101242.44;5056193;28;20379;-87
2022/03/15 06:05:20;;;;;;;27.75;12.40;;;;;;;3.52;96.81;101241.84;5056350;28;20104;-87
2022/03/15 06:07:47;;;;;;;30.23;14.02;;;;;;;3.44;97.84;101236.00;5058938;28;20056;-86
2022/03/15 06:10:15;;;;;;;41.80;18.92;;;;;;;3.40;98.26;101237.81;5055699;28;20013;-86
2022/03/15 06:12:45;;;;;;;43.95;15.75;;;;;;;3.38;98.53;101229.22;5077431;28;20122;-87
2022/03/15 06:15:11;;;;;;;35.45;13.82;;;;;;;3.35;98.41;101231.88;5059011;28;20041;-87
2022/03/15 06:17:59;;;;;;;44.63;16.40;;;;;;;3.34;99.21;101231.03;5058521;28;20083;-87
2022/03/15 06:20:28;;;;;;;80.25;24.15;;;;;;;3.33;98.92;101234.47;5040788;28;20100;-86
2022/03/15 06:22:54;;;;;;;74.55;24.42;;;;;;;3.34;99.03;101230.19;5058175;28;20025;-88
2022/03/15 06:25:30;;;;;;;53.78;20.30;;;;;;;3.37;99.02;101233.56;5063065;28;20093;-88
2022/03/15 06:28:01;;;;;;;63.85;22.88;;;;;;;3.37;98.81;101227.50;5049829;28;20088;-88
2022/03/15 06:30:36;;;;;;;31.35;15.02;;;;;;;3.38;99.12;101226.63;5038034;28;20060;-88
2022/03/15 06:33:02;;;;;;;33.22;14.68;;;;;;;3.44;99.28;101225.63;5056788;28;20417;-88
2022/03/15 06:35:29;;;;;;;31.63;12.60;;;;;;;3.48;99.21;101235.03;5070054;28;20037;-87
2022/03/15 06:37:55;;;;;;;32.75;14.90;;;;;;;3.53;98.78;101236.66;5051957;28;20119;-86
2022/03/15 06:40:24;;;;;;;35.85;14.38;;;;;;;3.56;98.99;101230.53;5054644;28;20060;-88
2022/03/15 06:42:53;;;;;;;39.63;15.00;;;;;;;3.59;98.39;101239.09;5054776;28;20025;-88
2022/03/15 06:45:33;;;;;;;32.42;14.57;;;;;;;3.66;98.38;101236.38;5048567;28;20105;-87
2022/03/15 06:48:03;;;;;;;31.90;14.02;;;;;;;3.70;97.98;101238.00;5056415;28;20059;-88
2022/03/15 06:50:31;;;;;;;35.55;13.82;;;;;;;3.77;98.04;101244.75;5057703;28;20062;-87
2022/03/15 06:53:02;;;;;;;36.50;14.82;;;;;;;3.83;98.20;101239.44;5051003;28;20052;-89
2022/03/15 06:55:29;;;;;;;34.88;14.73;;;;;;;3.86;97.34;101237.63;5047702;28;20414;-87
2022/03/15 06:58:02;;;;;;;27.52;12.70;;;;;;;3.92;96.66;101246.97;5063882;28;20049;-89
2022/03/15 07:00:40;;;;;;;29.60;13.57;;;;;;;4.00;97.29;101247.63;5055761;28;20060;-87
2022/03/15 07:03:06;;;;;;;37.78;13.98;;;;;;;4.09;97.02;101249.19;5055620;28;20030;-87
2022/03/15 07:05:31;;;;;;;39.42;14.90;;;;;;;4.10;95.96;101243.94;5059446;28;20037;-88
2022/03/15 07:07:57;;;;;;;37.90;14.35;;;;;;;4.19;96.72;101245.47;5073135;28;20032;-88
2022/03/15 07:10:23;;;;;;;44.17;15.93;;;;;;;4.25;95.70;101242.69;5056649;28;20065;-86
2022/03/15 07:12:48;;;;;;;42.05;17.98;;;;;;;4.34;95.47;101239.03;5076812;28;20079;-86
2022/03/15 07:15:20;;;;;;;32.25;13.45;;;;;;;4.42;95.14;101242.28;5068174;28;20052;-88
2022/03/15 07:17:58;;;;;;;30.58;14.07;;;;;;;4.49;95.47;101241.22;5043029;28;20041;-87
2022/03/15 07:20:27;;;;;;;40.60;14.48;;;;;;;4.58;94.64;101230.56;5038740;28;20041;-87
2022/03/15 07:22:57;;;;;;;37.95;15.10;;;;;;;4.61;93.64;101238.28;5062097;28;20081;-86
2022/03/15 07:25:22;;;;;;;25.60;11.93;;;;;;;4.66;92.53;101230.38;5031663;28;20041;-88
2022/03/15 07:27:48;;;;;;;28.75;12.10;;;;;;;4.76;93.02;101226.63;5040277;28;20035;-86
2022/03/15 07:30:20;;;;;;;26.92;11.70;;;;;;;4.92;92.55;101232.25;5059541;28;20029;-88
2022/03/15 07:32:51;;;;;;;25.80;10.95;;;;;;;4.96;91.51;101222.63;5053730;28;20051;-86
2022/03/15 07:35:20;;;;;;;29.27;11.70;;;;;;;4.99;91.83;101225.97;5064298;28;20037;-87
2022/03/15 07:37:58;;;;;;;29.50;12.48;;;;;;;5.07;92.39;101226.59;5065847;28;20040;-86
2022/03/15 07:40:26;;;;;;;35.97;14.20;;;;;;;5.15;91.66;101215.13;5048575;28;20017;-87
2022/03/15 07:43:05;;;;;;;64.47;14.82;;;;;;;5.25;90.77;101220.00;5068353;28;20024;-86
2022/03/15 07:45:31;;;;;;;57.78;15.13;;;;;;;5.37;90.97;101212.75;5069319;28;20121;-88
2022/03/15 07:47:59;;;;;;;57.58;12.60;;;;;;;5.49;91.33;101212.38;5066478;28;20646;-88
2022/03/15 07:50:34;;;;;;;31.90;12.77;;;;;;;5.57;91.01;101208.63;5065824;28;20094;-87
2022/03/15 07:52:59;;;;;;;22.52;10.52;;;;;;;5.64;90.51;101211.06;5065445;28;20068;-88
2022/03/15 07:55:26;;;;;;;28.58;12.77;;;;;;;5.73;90.82;101206.38;5061164;28;20029;-88
2022/03/15 07:57:52;;;;;;;35.17;14.00;;;;;;;5.77;88.77;101214.94;5052805;28;20043;-88
2022/03/15 08:00:21;;;;;;;39.58;13.18;;;;;;;5.83;88.56;101209.56;5031598;28;20045;-90
2022/03/15 08:02:51;;;;;;;;;;;;;;;5.98;89.19;101219.50;5056223;28;20055;-89
2022/03/15 08:05:22;;;;;;;35.78;12.07;;;;;;;6.10;88.44;101217.41;5055600;28;19974;-89
2022/03/15 08:07:51;;;;;;;29.90;11.50;;;;;;;6.19;88.52;101222.28;5060316;28;20044;-88
2022/03/15 08:10:16;;;;;;;25.98;11.57;;;;;;;6.24;87.69;101217.78;5058090;28;20029;-89
2022/03/15 08:12:44;;;;;;;26.08;11.90;;;;;;;6.32;87.75;101220.13;5034982;28;20135;-88
2022/03/15 08:15:25;;;;;;;38.90;13.13;;;;;;;6.46;87.54;101221.34;5053179;28;20037;-90
2022/03/15 08:17:50;;;;;;;27.85;12.98;;;;;;;6.58;87.23;101221.81;5066933;28;20130;-88
2022/03/15 08:20:39;;;;;;;39.88;15.52;;;;;;;6.61;85.79;101225.16;5047228;28;20075;-89
2022/03/15 08:23:17;;;;;;;25.85;11.77;;;;;;;6.67;84.72;101232.75;5051346;28;20048;-87
2022/03/15 08:25:42;;;;;;;26.85;12.13;;;;;;;6.78;84.32;101227.16;5064015;28;20099;-90
2022/03/15 08:28:08;;;;;;;43.40;12.48;;;;;;;6.88;84.28;101231.16;5059403;28;20108;-89
2022/03/15 08:30:36;;;;;;;20.13;9.73;;;;;;;6.99;83.40;101226.38;5062490;28;20049;-91
2022/03/15 08:33:02;;;;;;;22.70;9.82;;;;;;;7.13;83.11;101222.44;5053393;28;20041;-88
2022/03/15 08:35:31;;;;;;;21.95;9.45;;;;;;;7.22;82.82;101217.69;5057381;28;20087;-88
2022/03/15 08:37:59;;;;;;;;;;;;;;;7.33;82.41;101219.91;5058860;28;20044;-89
2022/03/15 08:40:32;;;;;;;33.05;9.48;;;;;;;7.40;82.31;101220.50;5044212;28;19952;-87
2022/03/15 08:43:06;;;;;;;42.03;11.40;;;;;;;7.45;82.33;101216.84;5057649;28;20093;-89
2022/03/15 08:45:31;;;;;;;38.33;9.85;;;;;;;7.56;81.88;101219.00;5050192;28;20052;-88
2022/03/15 08:48:00;;;;;;;21.52;9.75;;;;;;;7.59;82.27;101210.19;5048255;28;20429;-87
2022/03/15 08:50:42;;;;;;;33.50;9.40;;;;;;;7.69;81.41;101214.16;5044705;28;20060;-86
2022/03/15 08:53:14;;;;;;;32.15;9.70;;;;;;;7.74;80.69;101215.66;5057233;28;20040;-89
2022/03/15 08:55:55;;;;;;;36.60;8.88;;;;;;;7.78;80.24;101221.59;5042831;28;20117;-89
2022/03/15 08:58:39;;;;;;;24.60;8.88;;;;;;;7.82;79.87;101210.13;5050172;28;20079;-88
2022/03/15 09:01:07;;;;;;;28.60;8.52;;;;;;;7.87;78.10;101212.56;5037952;28;20033;-89
2022/03/15 09:03:50;;;;;;;;;;;;;;;;;;;;;
2022/03/15 09:06:23;;;;;;;31.15;9.10;;;;;;;7.98;78.45;101208.59;5049831;28;20141;-87
2022/03/15 09:09:00;;;;;;;20.80;8.50;;;;;;;8.04;77.54;101204.88;5054259;28;20037;-88
2022/03/15 09:11:34;;;;;;;23.50;9.55;;;;;;;8.08;77.71;101209.03;5053370;28;20045;-87
2022/03/15 09:14:38;;;;;;;21.38;8.45;;;;;;;8.16;77.48;101196.53;5041294;28;20116;-89
2022/03/15 09:17:17;;;;;;;19.45;7.25;;;;;;;8.31;77.44;101200.25;5054469;28;20047;-89
2022/03/15 09:19:45;;;;;;;20.55;8.50;;;;;;;8.33;76.14;101202.78;5054852;28;20067;-85
2022/03/15 09:22:16;;;;;;;22.42;8.23;;;;;;;8.37;76.36;101191.28;5047856;28;20112;-87
2022/03/15 09:24:45;;;;;;;30.23;8.57;;;;;;;8.52;75.84;101188.03;5054921;28;20061;-88
2022/03/15 09:27:18;;;;;;;24.63;8.00;;;;;;;8.56;76.23;101189.59;5051866;28;20128;-87
2022/03/15 09:29:58;;;;;;;37.67;10.00;;;;;;;8.70;75.90;101184.63;5054984;28;20033;-86
2022/03/15 09:32:28;;;;;;;31.77;9.98;;;;;;;8.87;74.86;101183.88;5053404;28;20047;-87
2022/03/15 09:37:51;;;;;;;27.20;7.15;;;;;;;9.07;73.82;101179.47;5063630;28;20035;-88
2022/03/15 09:40:22;;;;;;;17.52;6.80;;;;;;;9.19;73.29;101179.75;5052097;28;20048;-88
2022/03/15 09:42:49;;;;;;;16.40;6.82;;;;;;;9.33;72.98;101170.41;5054032;28;20029;-88
2022/03/15 09:48:42;;;;;;;;;;;;;;;9.56;72.49;101167.53;5058151;28;20047;-88
2022/03/15 09:51:13;;;;;;;20.67;7.47;;;;;;;9.58;70.93;101163.06;5046435;28;19919;-85
2022/03/15 09:53:42;;;;;;;18.33;8.00;;;;;;;9.58;70.74;101159.63;5056918;28;20544;-88
2022/03/15 09:56:39;;;;;;;25.00;8.15;;;;;;;9.66;70.15;101157.47;5038653;28;20132;-86
2022/03/15 09:59:14;;;;;;;31.88;8.35;;;;;;;9.84;69.84;101156.56;5052577;28;20247;-87
2022/03/15 10:01:43;;;;;;;20.58;7.18;;;;;;;9.91;70.51;101157.09;5054606;28;20037;-89
2022/03/15 10:04:11;;;;;;;16.42;7.38;;;;;;;10.08;69.77;101154.44;5054352;28;20499;-87
2022/03/15 10:06:48;;;;;;;30.88;8.52;;;;;;;10.07;69.36;101142.28;5047663;28;20036;-87
2022/03/15 10:09:16;;;;;;;15.07;7.93;;;;;;;9.93;69.14;101116.78;5054990;28;20033;-88
2022/03/15 10:11:53;;;;;;;23.88;7.93;;;;;;;9.77;69.88;101136.81;5060202;28;20114;-87
2022/03/15 10:14:19;;;;;;;24.95;8.98;;;;;;;9.92;69.61;101138.66;5054107;28;20039;-87
2022/03/15 10:16:45;;;;;;;18.83;8.38;;;;;;;9.85;69.95;101131.19;5053562;28;20121;-88
2022/03/15 10:19:16;;;;;;;22.13;8.35;;;;;;;9.94;70.38;101130.75;5057622;28;20049;-86
2022/03/15 10:21:53;;;;;;;24.88;8.07;;;;;;;10.10;69.42;101120.31;5033516;28;20065;-87
2022/03/15 10:24:29;;;;;;;17.08;7.38;;;;;;;10.20;68.05;101118.94;5054038;28;20091;-87
2022/03/15 10:27:02;;;;;;;19.75;7.88;;;;;;;10.38;67.89;101114.50;5056682;28;20150;-87
2022/03/15 10:29:33;;;;;;;17.13;8.40;;;;;;;10.51;67.24;101109.47;5060042;28;20033;-87
2022/03/15 10:31:59;;;;;;;21.27;8.60;;;;;;;10.68;67.57;101098.06;5053067;28;20025;-86
2022/03/15 10:34:27;;;;;;;20.58;8.18;;;;;;;10.71;67.08;101096.13;5058517;28;20025;-88
2022/03/15 10:37:08;;;;;;;22.05;8.10;;;;;;;10.68;67.28;101091.06;5056169;28;20508;-88
2022/03/15 10:39:40;;;;;;;37.58;10.60;;;;;;;10.90;66.36;101096.81;5057697;28;20033;-88
2022/03/15 10:42:08;;;;;;;18.15;8.05;;;;;;;10.77;66.40;101085.28;5054147;28;20160;-87
2022/03/15 10:44:41;;;;;;;19.70;8.18;;;;;;;10.72;67.43;101082.09;5053335;28;20029;-87
2022/03/15 10:47:17;;;;;;;23.00;7.78;;;;;;;10.87;67.20;101075.16;5051432;28;20477;-87
2022/03/15 10:50:04;;;;;;;23.33;9.40;;;;;;;10.97;66.20;101065.81;5054446;28;20076;-87
2022/03/15 10:52:34;;;;;;;24.58;11.15;;;;;;;10.95;65.90;101065.06;5054013;28;20361;-87
2022/03/15 10:55:20;;;;;;;28.38;12.88;;;;;;;10.99;65.39;101071.84;5055793;28;20045;-87
2022/03/15 10:57:48;;;;;;;32.40;14.85;;;;;;;10.95;65.83;101064.22;5053188;28;20072;-87
2022/03/15 11:00:20;;;;;;;41.47;10.68;;;;;;;11.20;64.97;101061.91;5045011;28;20133;-87
2022/03/15 11:09:44;;;;;;;21.33;7.65;;;;;;;11.67;62.41;101042.53;5011755;28;20072;-89
2022/03/15 11:12:22;;;;;;;37.83;7.90;;;;;;;11.50;62.85;101040.06;5017657;28;20114;-89
2022/03/15 11:14:59;;;;;;;13.75;6.70;;;;;;;11.72;63.05;101039.66;5015961;28;20038;-89
2022/03/15 11:17:40;;;;;;;25.83;9.00;;;;;;;11.97;62.09;101036.41;4992411;28;20044;-91
2022/03/15 11:20:10;;;;;;;39.75;9.88;;;;;;;12.21;62.19;101040.16;5008459;28;20083;-89
2022/03/15 11:22:36;;;;;;;;;;;;;;;12.39;61.42;101032.91;5003851;28;20062;-92
2022/03/15 11:25:39;;;;;;;29.63;7.63;;;;;;;12.33;60.12;101028.88;5022541;28;20001;-93
2022/03/15 11:28:12;;;;;;;18.83;7.72;;;;;;;12.41;60.73;101024.91;4992516;28;20038;-90
2022/03/15 11:30:41;;;;;;;32.33;9.90;;;;;;;12.55;60.03;101022.28;5019282;28;20036;-90
2022/03/15 11:33:07;;;;;;;41.88;10.27;;;;;;;12.67;60.50;101010.94;5034362;22;20030;-70
2022/03/15 11:35:34;;;;;;;23.60;7.82;;;;;;;12.69;59.97;101009.09;5042787;28;20052;-68
2022/03/15 11:38:02;;;;;;;32.13;10.07;;;;;;;12.71;59.69;101003.72;5043017;28;20045;-65
2022/03/15 11:40:29;;;;;;;37.37;8.33;;;;;;;12.68;60.75;100990.75;5041152;28;20040;-68
2022/03/15 11:43:01;;;;;;;53.45;10.20;;;;;;;12.65;60.13;100989.19;5041961;28;20266;-65